sensor_id;sensor_type;location;lat;lon;timestamp;P1;durP1;ratioP1;P2;durP2;ratioP2
76320;SDS011;65132;52.088;5.402;2023-05-17T00:00:38;5.85;;;1.70;;
76320;SDS011;65132;52.088;5.402;2023-05-17T00:03:08;12.07;;;2.85;;
76320;SDS011;65132;52.088;5.402;2023-05-17T00:05:34;12.80;;;2.80;;
76320;SDS011;65132;52.088;5.402;2023-05-17T00:08:00;9.15;;;1.90;;
76320;SDS011;65132;52.088;5.402;2023-05-17T00:10:27;6.82;;;2.20;;
76320;SDS011;65132;52.088;5.402;2023-05-17T00:12:55;7.15;;;1.85;;
76320;SDS011;65132;52.088;5.402;2023-05-17T00:15:21;10.65;;;2.25;;
76320;SDS011;65132;52.088;5.402;2023-05-17T00:17:49;7.60;;;1.95;;
76320;SDS011;65132;52.088;5.402;2023-05-17T00:20:15;9.88;;;1.83;;
76320;SDS011;65132;52.088;5.402;2023-05-17T00:22:41;6.75;;;2.22;;
76320;SDS011;65132;52.088;5.402;2023-05-17T00:25:09;9.57;;;1.90;;
76320;SDS011;65132;52.088;5.402;2023-05-17T00:27:35;4.45;;;1.85;;
76320;SDS011;65132;52.088;5.402;2023-05-17T00:30:03;5.60;;;1.83;;
76320;SDS011;65132;52.088;5.402;2023-05-17T00:32:34;7.07;;;2.20;;
76320;SDS011;65132;52.088;5.402;2023-05-17T00:35:03;6.40;;;2.00;;
76320;SDS011;65132;52.088;5.402;2023-05-17T00:37:29;8.43;;;2.17;;
76320;SDS011;65132;52.088;5.402;2023-05-17T00:39:55;5.03;;;1.92;;
76320;SDS011;65132;52.088;5.402;2023-05-17T00:42:22;9.80;;;2.20;;
76320;SDS011;65132;52.088;5.402;2023-05-17T00:44:51;10.60;;;2.70;;
76320;SDS011;65132;52.088;5.402;2023-05-17T00:47:17;7.28;;;2.35;;
76320;SDS011;65132;52.088;5.402;2023-05-17T00:49:44;10.10;;;2.67;;
76320;SDS011;65132;52.088;5.402;2023-05-17T00:52:12;7.38;;;2.92;;
76320;SDS011;65132;52.088;5.402;2023-05-17T00:54:41;8.18;;;2.00;;
76320;SDS011;65132;52.088;5.402;2023-05-17T00:57:07;7.18;;;1.75;;
76320;SDS011;65132;52.088;5.402;2023-05-17T00:59:37;8.70;;;2.90;;
76320;SDS011;65132;52.088;5.402;2023-05-17T01:02:04;13.30;;;2.40;;
76320;SDS011;65132;52.088;5.402;2023-05-17T01:04:33;11.02;;;2.22;;
76320;SDS011;65132;52.088;5.402;2023-05-17T01:07:02;8.75;;;2.78;;
76320;SDS011;65132;52.088;5.402;2023-05-17T01:09:29;8.48;;;2.70;;
76320;SDS011;65132;52.088;5.402;2023-05-17T01:12:00;9.73;;;2.70;;
76320;SDS011;65132;52.088;5.402;2023-05-17T01:22:35;10.68;;;2.75;;
76320;SDS011;65132;52.088;5.402;2023-05-17T01:25:10;9.43;;;1.85;;
76320;SDS011;65132;52.088;5.402;2023-05-17T01:27:36;6.28;;;1.90;;
76320;SDS011;65132;52.088;5.402;2023-05-17T01:30:08;7.85;;;2.53;;
76320;SDS011;65132;52.088;5.402;2023-05-17T01:32:37;11.38;;;1.92;;
76320;SDS011;65132;52.088;5.402;2023-05-17T01:35:04;11.52;;;2.10;;
76320;SDS011;65132;52.088;5.402;2023-05-17T01:37:31;14.93;;;3.05;;
76320;SDS011;65132;52.088;5.402;2023-05-17T01:39:59;8.73;;;2.08;;
76320;SDS011;65132;52.088;5.402;2023-05-17T01:42:28;9.70;;;2.28;;
76320;SDS011;65132;52.088;5.402;2023-05-17T01:45:03;10.45;;;2.40;;
76320;SDS011;65132;52.088;5.402;2023-05-17T01:47:39;7.30;;;2.30;;
76320;SDS011;65132;52.088;5.402;2023-05-17T01:50:11;10.13;;;2.35;;
76320;SDS011;65132;52.088;5.402;2023-05-17T01:55:23;8.13;;;2.75;;
76320;SDS011;65132;52.088;5.402;2023-05-17T01:57:51;14.45;;;2.67;;
76320;SDS011;65132;52.088;5.402;2023-05-17T02:00:20;10.27;;;3.10;;
76320;SDS011;65132;52.088;5.402;2023-05-17T02:02:53;7.30;;;2.05;;
76320;SDS011;65132;52.088;5.402;2023-05-17T02:05:20;10.65;;;2.10;;
76320;SDS011;65132;52.088;5.402;2023-05-17T02:07:46;11.05;;;2.50;;
76320;SDS011;65132;52.088;5.402;2023-05-17T02:10:12;10.73;;;2.05;;
76320;SDS011;65132;52.088;5.402;2023-05-17T02:12:39;15.98;;;2.60;;
76320;SDS011;65132;52.088;5.402;2023-05-17T02:15:05;11.80;;;2.90;;
76320;SDS011;65132;52.088;5.402;2023-05-17T02:17:33;11.18;;;2.70;;
76320;SDS011;65132;52.088;5.402;2023-05-17T02:20:05;9.25;;;2.63;;
76320;SDS011;65132;52.088;5.402;2023-05-17T02:22:33;8.98;;;2.03;;
76320;SDS011;65132;52.088;5.402;2023-05-17T02:24:59;11.07;;;2.45;;
76320;SDS011;65132;52.088;5.402;2023-05-17T02:27:26;10.65;;;2.78;;
76320;SDS011;65132;52.088;5.402;2023-05-17T02:29:54;8.45;;;2.67;;
76320;SDS011;65132;52.088;5.402;2023-05-17T02:32:23;13.80;;;2.90;;
76320;SDS011;65132;52.088;5.402;2023-05-17T02:34:50;11.60;;;2.90;;
76320;SDS011;65132;52.088;5.402;2023-05-17T02:37:16;11.73;;;3.25;;
76320;SDS011;65132;52.088;5.402;2023-05-17T02:39:43;8.45;;;2.55;;
76320;SDS011;65132;52.088;5.402;2023-05-17T02:42:09;9.65;;;2.70;;
76320;SDS011;65132;52.088;5.402;2023-05-17T02:44:36;11.38;;;2.28;;
76320;SDS011;65132;52.088;5.402;2023-05-17T02:47:03;10.85;;;2.38;;
76320;SDS011;65132;52.088;5.402;2023-05-17T02:49:30;12.77;;;3.15;;
76320;SDS011;65132;52.088;5.402;2023-05-17T02:51:56;11.90;;;2.47;;
76320;SDS011;65132;52.088;5.402;2023-05-17T02:54:23;11.73;;;3.00;;
76320;SDS011;65132;52.088;5.402;2023-05-17T02:56:50;8.80;;;2.10;;
76320;SDS011;65132;52.088;5.402;2023-05-17T02:59:16;8.07;;;2.38;;
76320;SDS011;65132;52.088;5.402;2023-05-17T03:01:43;12.02;;;2.58;;
76320;SDS011;65132;52.088;5.402;2023-05-17T03:04:09;12.48;;;2.63;;
76320;SDS011;65132;52.088;5.402;2023-05-17T03:06:36;9.23;;;2.70;;
76320;SDS011;65132;52.088;5.402;2023-05-17T03:09:03;12.15;;;2.70;;
76320;SDS011;65132;52.088;5.402;2023-05-17T03:11:30;9.70;;;2.25;;
76320;SDS011;65132;52.088;5.402;2023-05-17T03:13:56;12.55;;;3.00;;
76320;SDS011;65132;52.088;5.402;2023-05-17T03:16:23;14.15;;;2.95;;
76320;SDS011;65132;52.088;5.402;2023-05-17T03:18:49;11.20;;;3.60;;
76320;SDS011;65132;52.088;5.402;2023-05-17T03:21:16;11.52;;;2.55;;
76320;SDS011;65132;52.088;5.402;2023-05-17T03:23:43;9.82;;;2.72;;
76320;SDS011;65132;52.088;5.402;2023-05-17T03:26:10;12.30;;;2.90;;
76320;SDS011;65132;52.088;5.402;2023-05-17T03:28:36;8.73;;;3.05;;
76320;SDS011;65132;52.088;5.402;2023-05-17T03:31:03;8.68;;;3.17;;
76320;SDS011;65132;52.088;5.402;2023-05-17T03:33:30;11.23;;;3.75;;
76320;SDS011;65132;52.088;5.402;2023-05-17T03:35:56;11.68;;;3.33;;
76320;SDS011;65132;52.088;5.402;2023-05-17T03:38:23;7.53;;;2.15;;
76320;SDS011;65132;52.088;5.402;2023-05-17T03:40:50;9.40;;;3.05;;
76320;SDS011;65132;52.088;5.402;2023-05-17T03:43:18;6.40;;;2.03;;
76320;SDS011;65132;52.088;5.402;2023-05-17T03:45:44;9.00;;;2.55;;
76320;SDS011;65132;52.088;5.402;2023-05-17T03:48:11;10.45;;;2.50;;
76320;SDS011;65132;52.088;5.402;2023-05-17T03:50:38;7.22;;;2.03;;
76320;SDS011;65132;52.088;5.402;2023-05-17T03:53:04;10.82;;;2.63;;
76320;SDS011;65132;52.088;5.402;2023-05-17T03:55:31;8.55;;;2.47;;
76320;SDS011;65132;52.088;5.402;2023-05-17T03:57:57;7.95;;;2.78;;
76320;SDS011;65132;52.088;5.402;2023-05-17T04:00:24;5.85;;;2.22;;
76320;SDS011;65132;52.088;5.402;2023-05-17T04:02:50;9.63;;;2.72;;
76320;SDS011;65132;52.088;5.402;2023-05-17T04:05:17;7.47;;;2.45;;
76320;SDS011;65132;52.088;5.402;2023-05-17T04:07:44;9.48;;;1.85;;
76320;SDS011;65132;52.088;5.402;2023-05-17T04:10:11;9.32;;;2.50;;
76320;SDS011;65132;52.088;5.402;2023-05-17T04:12:38;10.57;;;2.28;;
76320;SDS011;65132;52.088;5.402;2023-05-17T04:15:04;7.72;;;2.30;;
76320;SDS011;65132;52.088;5.402;2023-05-17T04:17:32;10.60;;;1.90;;
76320;SDS011;65132;52.088;5.402;2023-05-17T04:19:59;9.63;;;1.80;;
76320;SDS011;65132;52.088;5.402;2023-05-17T04:22:26;10.20;;;2.65;;
76320;SDS011;65132;52.088;5.402;2023-05-17T04:24:52;8.05;;;2.35;;
76320;SDS011;65132;52.088;5.402;2023-05-17T04:27:19;10.65;;;1.80;;
76320;SDS011;65132;52.088;5.402;2023-05-17T04:29:45;5.95;;;2.25;;
76320;SDS011;65132;52.088;5.402;2023-05-17T04:32:12;7.63;;;2.25;;
76320;SDS011;65132;52.088;5.402;2023-05-17T04:34:39;6.85;;;1.73;;
76320;SDS011;65132;52.088;5.402;2023-05-17T04:37:06;8.00;;;2.53;;
76320;SDS011;65132;52.088;5.402;2023-05-17T04:39:33;8.57;;;2.15;;
76320;SDS011;65132;52.088;5.402;2023-05-17T04:42:00;8.75;;;2.35;;
76320;SDS011;65132;52.088;5.402;2023-05-17T04:44:27;6.38;;;1.98;;
76320;SDS011;65132;52.088;5.402;2023-05-17T04:46:55;7.28;;;1.58;;
76320;SDS011;65132;52.088;5.402;2023-05-17T04:49:22;5.32;;;1.60;;
76320;SDS011;65132;52.088;5.402;2023-05-17T04:51:49;7.05;;;1.92;;
76320;SDS011;65132;52.088;5.402;2023-05-17T04:54:17;8.63;;;2.38;;
76320;SDS011;65132;52.088;5.402;2023-05-17T04:56:49;10.02;;;2.22;;
76320;SDS011;65132;52.088;5.402;2023-05-17T04:59:17;6.88;;;2.70;;
76320;SDS011;65132;52.088;5.402;2023-05-17T05:01:44;7.13;;;1.95;;
76320;SDS011;65132;52.088;5.402;2023-05-17T05:04:10;7.18;;;1.83;;
76320;SDS011;65132;52.088;5.402;2023-05-17T05:06:37;8.07;;;1.63;;
76320;SDS011;65132;52.088;5.402;2023-05-17T05:09:04;7.47;;;1.30;;
76320;SDS011;65132;52.088;5.402;2023-05-17T05:11:31;9.63;;;2.28;;
76320;SDS011;65132;52.088;5.402;2023-05-17T05:13:58;7.30;;;1.80;;
76320;SDS011;65132;52.088;5.402;2023-05-17T05:16:27;10.85;;;2.25;;
76320;SDS011;65132;52.088;5.402;2023-05-17T05:18:53;6.93;;;1.40;;
76320;SDS011;65132;52.088;5.402;2023-05-17T05:21:20;5.72;;;1.48;;
76320;SDS011;65132;52.088;5.402;2023-05-17T05:23:47;6.88;;;1.30;;
76320;SDS011;65132;52.088;5.402;2023-05-17T05:26:14;11.35;;;1.20;;
76320;SDS011;65132;52.088;5.402;2023-05-17T05:28:41;9.02;;;1.60;;
76320;SDS011;65132;52.088;5.402;2023-05-17T05:31:07;12.18;;;1.80;;
76320;SDS011;65132;52.088;5.402;2023-05-17T05:33:34;6.68;;;1.27;;
76320;SDS011;65132;52.088;5.402;2023-05-17T05:36:03;9.50;;;1.92;;
76320;SDS011;65132;52.088;5.402;2023-05-17T05:38:30;9.00;;;1.30;;
76320;SDS011;65132;52.088;5.402;2023-05-17T05:40:57;8.05;;;1.05;;
76320;SDS011;65132;52.088;5.402;2023-05-17T05:43:23;9.95;;;1.60;;
76320;SDS011;65132;52.088;5.402;2023-05-17T05:45:52;10.57;;;1.63;;
76320;SDS011;65132;52.088;5.402;2023-05-17T05:48:18;8.35;;;1.00;;
76320;SDS011;65132;52.088;5.402;2023-05-17T05:50:45;8.02;;;1.33;;
76320;SDS011;65132;52.088;5.402;2023-05-17T05:53:13;13.27;;;0.75;;
76320;SDS011;65132;52.088;5.402;2023-05-17T05:55:45;7.80;;;1.45;;
76320;SDS011;65132;52.088;5.402;2023-05-17T05:58:11;7.47;;;1.05;;
76320;SDS011;65132;52.088;5.402;2023-05-17T06:00:39;12.07;;;1.08;;
76320;SDS011;65132;52.088;5.402;2023-05-17T06:03:09;7.43;;;1.33;;
76320;SDS011;65132;52.088;5.402;2023-05-17T06:05:35;10.57;;;1.40;;
76320;SDS011;65132;52.088;5.402;2023-05-17T06:08:02;7.78;;;1.33;;
76320;SDS011;65132;52.088;5.402;2023-05-17T06:10:30;10.13;;;1.15;;
76320;SDS011;65132;52.088;5.402;2023-05-17T06:12:57;10.85;;;1.30;;
76320;SDS011;65132;52.088;5.402;2023-05-17T06:15:25;6.38;;;1.08;;
76320;SDS011;65132;52.088;5.402;2023-05-17T06:17:52;8.40;;;1.65;;
76320;SDS011;65132;52.088;5.402;2023-05-17T06:20:18;8.35;;;0.82;;
76320;SDS011;65132;52.088;5.402;2023-05-17T06:22:45;7.35;;;1.67;;
76320;SDS011;65132;52.088;5.402;2023-05-17T06:25:12;4.25;;;1.05;;
76320;SDS011;65132;52.088;5.402;2023-05-17T06:27:38;6.40;;;1.00;;
76320;SDS011;65132;52.088;5.402;2023-05-17T06:30:05;5.55;;;0.85;;
76320;SDS011;65132;52.088;5.402;2023-05-17T06:32:32;7.85;;;1.40;;
76320;SDS011;65132;52.088;5.402;2023-05-17T06:34:59;8.25;;;0.80;;
76320;SDS011;65132;52.088;5.402;2023-05-17T06:37:26;6.78;;;1.00;;
76320;SDS011;65132;52.088;5.402;2023-05-17T06:40:02;6.72;;;1.35;;
76320;SDS011;65132;52.088;5.402;2023-05-17T06:42:34;3.83;;;0.40;;
76320;SDS011;65132;52.088;5.402;2023-05-17T06:45:01;5.72;;;1.27;;
76320;SDS011;65132;52.088;5.402;2023-05-17T06:47:28;6.28;;;0.93;;
76320;SDS011;65132;52.088;5.402;2023-05-17T06:49:55;11.20;;;1.60;;
76320;SDS011;65132;52.088;5.402;2023-05-17T06:52:22;5.38;;;0.98;;
76320;SDS011;65132;52.088;5.402;2023-05-17T06:54:53;4.80;;;0.63;;
76320;SDS011;65132;52.088;5.402;2023-05-17T06:57:19;2.63;;;0.57;;
76320;SDS011;65132;52.088;5.402;2023-05-17T06:59:46;3.92;;;1.05;;
76320;SDS011;65132;52.088;5.402;2023-05-17T07:02:13;6.78;;;0.70;;
76320;SDS011;65132;52.088;5.402;2023-05-17T07:04:42;8.63;;;0.90;;
76320;SDS011;65132;52.088;5.402;2023-05-17T07:07:09;4.75;;;0.98;;
76320;SDS011;65132;52.088;5.402;2023-05-17T07:09:36;4.63;;;1.08;;
76320;SDS011;65132;52.088;5.402;2023-05-17T07:12:03;3.53;;;0.95;;
76320;SDS011;65132;52.088;5.402;2023-05-17T07:14:30;7.40;;;0.90;;
76320;SDS011;65132;52.088;5.402;2023-05-17T07:16:57;3.85;;;1.20;;
76320;SDS011;65132;52.088;5.402;2023-05-17T07:19:24;5.70;;;0.57;;
76320;SDS011;65132;52.088;5.402;2023-05-17T07:21:51;4.78;;;1.10;;
76320;SDS011;65132;52.088;5.402;2023-05-17T07:24:20;5.18;;;0.95;;
76320;SDS011;65132;52.088;5.402;2023-05-17T07:26:50;6.75;;;0.95;;
76320;SDS011;65132;52.088;5.402;2023-05-17T07:29:18;6.57;;;0.82;;
76320;SDS011;65132;52.088;5.402;2023-05-17T07:31:46;6.88;;;1.35;;
76320;SDS011;65132;52.088;5.402;2023-05-17T07:34:13;5.72;;;1.17;;
76320;SDS011;65132;52.088;5.402;2023-05-17T07:36:41;5.55;;;1.00;;
76320;SDS011;65132;52.088;5.402;2023-05-17T07:39:08;11.68;;;1.08;;
76320;SDS011;65132;52.088;5.402;2023-05-17T07:41:38;3.08;;;0.77;;
76320;SDS011;65132;52.088;5.402;2023-05-17T07:44:07;7.90;;;0.50;;
76320;SDS011;65132;52.088;5.402;2023-05-17T07:46:35;4.20;;;0.80;;
76320;SDS011;65132;52.088;5.402;2023-05-17T07:49:01;4.78;;;0.90;;
76320;SDS011;65132;52.088;5.402;2023-05-17T07:51:28;5.65;;;0.68;;
76320;SDS011;65132;52.088;5.402;2023-05-17T07:53:55;3.38;;;0.65;;
76320;SDS011;65132;52.088;5.402;2023-05-17T07:56:22;4.05;;;0.70;;
76320;SDS011;65132;52.088;5.402;2023-05-17T07:58:48;3.67;;;0.77;;
76320;SDS011;65132;52.088;5.402;2023-05-17T08:01:15;6.80;;;0.82;;
76320;SDS011;65132;52.088;5.402;2023-05-17T08:03:41;6.43;;;1.25;;
76320;SDS011;65132;52.088;5.402;2023-05-17T08:06:10;3.83;;;0.73;;
76320;SDS011;65132;52.088;5.402;2023-05-17T08:08:41;3.65;;;0.98;;
76320;SDS011;65132;52.088;5.402;2023-05-17T08:11:08;6.03;;;1.13;;
76320;SDS011;65132;52.088;5.402;2023-05-17T08:13:35;6.30;;;0.80;;
76320;SDS011;65132;52.088;5.402;2023-05-17T08:16:05;7.95;;;1.50;;
76320;SDS011;65132;52.088;5.402;2023-05-17T08:18:40;3.88;;;0.88;;
76320;SDS011;65132;52.088;5.402;2023-05-17T08:21:09;6.90;;;1.00;;
76320;SDS011;65132;52.088;5.402;2023-05-17T08:23:35;4.57;;;0.70;;
76320;SDS011;65132;52.088;5.402;2023-05-17T08:26:05;3.30;;;0.30;;
76320;SDS011;65132;52.088;5.402;2023-05-17T08:28:31;4.72;;;0.85;;
76320;SDS011;65132;52.088;5.402;2023-05-17T08:30:59;4.55;;;0.55;;
76320;SDS011;65132;52.088;5.402;2023-05-17T08:33:25;3.42;;;0.63;;
76320;SDS011;65132;52.088;5.402;2023-05-17T08:35:52;5.10;;;0.85;;
76320;SDS011;65132;52.088;5.402;2023-05-17T08:38:18;3.92;;;0.40;;
76320;SDS011;65132;52.088;5.402;2023-05-17T08:40:52;5.15;;;0.70;;
76320;SDS011;65132;52.088;5.402;2023-05-17T08:43:19;3.60;;;0.50;;
76320;SDS011;65132;52.088;5.402;2023-05-17T08:45:45;5.80;;;0.90;;
76320;SDS011;65132;52.088;5.402;2023-05-17T08:48:12;6.00;;;0.70;;
76320;SDS011;65132;52.088;5.402;2023-05-17T08:50:41;4.28;;;0.40;;
76320;SDS011;65132;52.088;5.402;2023-05-17T08:53:07;2.03;;;0.60;;
76320;SDS011;65132;52.088;5.402;2023-05-17T08:55:34;3.03;;;0.60;;
76320;SDS011;65132;52.088;5.402;2023-05-17T08:58:02;5.43;;;0.52;;
76320;SDS011;65132;52.088;5.402;2023-05-17T09:00:31;2.33;;;0.40;;
76320;SDS011;65132;52.088;5.402;2023-05-17T09:02:58;2.63;;;0.75;;
76320;SDS011;65132;52.088;5.402;2023-05-17T09:05:28;3.13;;;0.38;;
76320;SDS011;65132;52.088;5.402;2023-05-17T09:07:54;4.70;;;0.60;;
76320;SDS011;65132;52.088;5.402;2023-05-17T09:10:23;2.88;;;0.40;;
76320;SDS011;65132;52.088;5.402;2023-05-17T09:12:50;3.42;;;0.80;;
76320;SDS011;65132;52.088;5.402;2023-05-17T09:15:20;5.03;;;0.60;;
76320;SDS011;65132;52.088;5.402;2023-05-17T09:17:51;2.70;;;0.30;;
76320;SDS011;65132;52.088;5.402;2023-05-17T09:20:25;5.45;;;0.50;;
76320;SDS011;65132;52.088;5.402;2023-05-17T09:22:51;4.75;;;0.57;;
76320;SDS011;65132;52.088;5.402;2023-05-17T09:25:18;5.25;;;0.70;;
76320;SDS011;65132;52.088;5.402;2023-05-17T09:27:45;1.88;;;0.40;;
76320;SDS011;65132;52.088;5.402;2023-05-17T09:30:12;5.50;;;0.60;;
76320;SDS011;65132;52.088;5.402;2023-05-17T09:32:42;3.55;;;0.60;;
76320;SDS011;65132;52.088;5.402;2023-05-17T09:35:08;3.33;;;0.40;;
76320;SDS011;65132;52.088;5.402;2023-05-17T09:37:39;4.38;;;0.60;;
76320;SDS011;65132;52.088;5.402;2023-05-17T09:40:10;1.92;;;0.30;;
76320;SDS011;65132;52.088;5.402;2023-05-17T09:42:46;3.85;;;0.50;;
76320;SDS011;65132;52.088;5.402;2023-05-17T09:45:20;4.35;;;0.40;;
76320;SDS011;65132;52.088;5.402;2023-05-17T09:47:46;3.83;;;0.50;;
76320;SDS011;65132;52.088;5.402;2023-05-17T09:50:16;2.25;;;0.50;;
76320;SDS011;65132;52.088;5.402;2023-05-17T09:52:45;3.92;;;0.30;;
76320;SDS011;65132;52.088;5.402;2023-05-17T09:55:12;4.80;;;0.82;;
76320;SDS011;65132;52.088;5.402;2023-05-17T09:57:39;4.38;;;0.50;;
76320;SDS011;65132;52.088;5.402;2023-05-17T10:00:07;5.57;;;0.47;;
76320;SDS011;65132;52.088;5.402;2023-05-17T10:02:33;3.88;;;0.68;;
76320;SDS011;65132;52.088;5.402;2023-05-17T10:05:04;5.15;;;0.65;;
76320;SDS011;65132;52.088;5.402;2023-05-17T10:07:30;4.15;;;0.77;;
76320;SDS011;65132;52.088;5.402;2023-05-17T10:09:58;3.03;;;0.55;;
76320;SDS011;65132;52.088;5.402;2023-05-17T10:12:27;5.38;;;0.52;;
76320;SDS011;65132;52.088;5.402;2023-05-17T10:14:56;4.15;;;0.40;;
76320;SDS011;65132;52.088;5.402;2023-05-17T10:17:23;2.35;;;0.40;;
76320;SDS011;65132;52.088;5.402;2023-05-17T10:19:50;4.35;;;0.60;;
76320;SDS011;65132;52.088;5.402;2023-05-17T10:22:20;3.72;;;0.50;;
76320;SDS011;65132;52.088;5.402;2023-05-17T10:24:49;3.88;;;0.60;;
76320;SDS011;65132;52.088;5.402;2023-05-17T10:27:16;4.45;;;0.52;;
76320;SDS011;65132;52.088;5.402;2023-05-17T10:29:44;3.85;;;0.57;;
76320;SDS011;65132;52.088;5.402;2023-05-17T10:32:15;4.25;;;0.50;;
76320;SDS011;65132;52.088;5.402;2023-05-17T10:34:41;3.67;;;0.70;;
76320;SDS011;65132;52.088;5.402;2023-05-17T10:37:08;3.95;;;0.40;;
76320;SDS011;65132;52.088;5.402;2023-05-17T10:39:35;6.05;;;0.55;;
76320;SDS011;65132;52.088;5.402;2023-05-17T10:42:04;3.53;;;0.43;;
76320;SDS011;65132;52.088;5.402;2023-05-17T10:44:38;3.45;;;0.50;;
76320;SDS011;65132;52.088;5.402;2023-05-17T10:47:05;3.95;;;0.50;;
76320;SDS011;65132;52.088;5.402;2023-05-17T10:49:32;2.35;;;0.30;;
76320;SDS011;65132;52.088;5.402;2023-05-17T10:52:09;2.67;;;0.50;;
76320;SDS011;65132;52.088;5.402;2023-05-17T10:54:38;1.67;;;0.30;;
76320;SDS011;65132;52.088;5.402;2023-05-17T10:57:05;3.08;;;0.52;;
76320;SDS011;65132;52.088;5.402;2023-05-17T10:59:37;5.07;;;1.00;;
76320;SDS011;65132;52.088;5.402;2023-05-17T11:02:22;3.53;;;0.45;;
76320;SDS011;65132;52.088;5.402;2023-05-17T11:04:49;3.72;;;0.40;;
76320;SDS011;65132;52.088;5.402;2023-05-17T11:07:20;5.03;;;0.50;;
76320;SDS011;65132;52.088;5.402;2023-05-17T11:09:50;4.05;;;0.35;;
76320;SDS011;65132;52.088;5.402;2023-05-17T11:12:54;2.35;;;0.38;;
76320;SDS011;65132;52.088;5.402;2023-05-17T11:15:16;3.25;;;0.50;;
76320;SDS011;65132;52.088;5.402;2023-05-17T11:22:55;4.35;;;0.43;;
76320;SDS011;65132;52.088;5.402;2023-05-17T11:25:25;2.35;;;0.52;;
76320;SDS011;65132;52.088;5.402;2023-05-17T11:27:52;3.22;;;0.50;;
76320;SDS011;65132;52.088;5.402;2023-05-17T11:30:25;2.15;;;0.45;;
76320;SDS011;65132;52.088;5.402;2023-05-17T11:35:26;3.95;;;0.40;;
76320;SDS011;65132;52.088;5.402;2023-05-17T11:37:53;4.20;;;0.45;;
76320;SDS011;65132;52.088;5.402;2023-05-17T11:40:26;4.47;;;0.90;;
76320;SDS011;65132;52.088;5.402;2023-05-17T11:43:14;5.78;;;1.00;;
76320;SDS011;65132;52.088;5.402;2023-05-17T11:45:50;7.03;;;0.73;;
76320;SDS011;65132;52.088;5.402;2023-05-17T11:48:19;3.85;;;0.47;;
76320;SDS011;65132;52.088;5.402;2023-05-17T11:50:47;4.15;;;0.60;;
76320;SDS011;65132;52.088;5.402;2023-05-17T11:53:14;3.28;;;0.47;;
76320;SDS011;65132;52.088;5.402;2023-05-17T11:55:43;5.38;;;0.75;;
76320;SDS011;65132;52.088;5.402;2023-05-17T11:58:13;5.93;;;0.60;;
76320;SDS011;65132;52.088;5.402;2023-05-17T12:00:42;2.40;;;0.38;;
76320;SDS011;65132;52.088;5.402;2023-05-17T12:03:19;4.72;;;0.70;;
76320;SDS011;65132;52.088;5.402;2023-05-17T12:05:49;5.07;;;0.43;;
76320;SDS011;65132;52.088;5.402;2023-05-17T12:08:18;4.20;;;0.50;;
76320;SDS011;65132;52.088;5.402;2023-05-17T12:13:13;4.93;;;0.90;;
76320;SDS011;65132;52.088;5.402;2023-05-17T12:18:42;6.47;;;0.88;;
76320;SDS011;65132;52.088;5.402;2023-05-17T12:21:11;5.25;;;0.70;;
76320;SDS011;65132;52.088;5.402;2023-05-17T12:23:40;6.82;;;0.50;;
76320;SDS011;65132;52.088;5.402;2023-05-17T12:26:10;1.92;;;0.40;;
76320;SDS011;65132;52.088;5.402;2023-05-17T12:28:42;3.90;;;0.80;;
76320;SDS011;65132;52.088;5.402;2023-05-17T12:31:13;4.45;;;0.60;;
76320;SDS011;65132;52.088;5.402;2023-05-17T12:33:41;5.30;;;0.75;;
76320;SDS011;65132;52.088;5.402;2023-05-17T12:36:08;3.83;;;0.73;;
76320;SDS011;65132;52.088;5.402;2023-05-17T12:38:39;4.03;;;0.88;;
76320;SDS011;65132;52.088;5.402;2023-05-17T12:41:09;5.43;;;0.88;;
76320;SDS011;65132;52.088;5.402;2023-05-17T12:43:37;4.05;;;0.40;;
76320;SDS011;65132;52.088;5.402;2023-05-17T12:46:06;5.53;;;0.60;;
76320;SDS011;65132;52.088;5.402;2023-05-17T12:48:36;7.35;;;1.10;;
76320;SDS011;65132;52.088;5.402;2023-05-17T12:51:12;3.60;;;0.73;;
76320;SDS011;65132;52.088;5.402;2023-05-17T12:53:53;4.85;;;0.70;;
76320;SDS011;65132;52.088;5.402;2023-05-17T12:56:22;7.82;;;0.63;;
76320;SDS011;65132;52.088;5.402;2023-05-17T13:04:04;4.82;;;0.75;;
76320;SDS011;65132;52.088;5.402;2023-05-17T13:09:16;6.05;;;0.75;;
76320;SDS011;65132;52.088;5.402;2023-05-17T13:11:48;3.17;;;0.80;;
76320;SDS011;65132;52.088;5.402;2023-05-17T13:14:31;4.00;;;0.65;;
76320;SDS011;65132;52.088;5.402;2023-05-17T13:17:01;3.83;;;0.63;;
76320;SDS011;65132;52.088;5.402;2023-05-17T13:19:27;7.47;;;0.77;;
76320;SDS011;65132;52.088;5.402;2023-05-17T13:21:54;3.00;;;1.10;;
76320;SDS011;65132;52.088;5.402;2023-05-17T13:24:20;5.63;;;1.13;;
76320;SDS011;65132;52.088;5.402;2023-05-17T13:26:47;4.93;;;0.68;;
76320;SDS011;65132;52.088;5.402;2023-05-17T13:29:17;3.55;;;0.60;;
76320;SDS011;65132;52.088;5.402;2023-05-17T13:34:19;4.90;;;0.95;;
76320;SDS011;65132;52.088;5.402;2023-05-17T13:36:46;5.10;;;0.80;;
76320;SDS011;65132;52.088;5.402;2023-05-17T13:39:13;4.68;;;0.65;;
76320;SDS011;65132;52.088;5.402;2023-05-17T13:41:40;2.80;;;0.40;;
76320;SDS011;65132;52.088;5.402;2023-05-17T13:44:09;4.65;;;0.75;;
76320;SDS011;65132;52.088;5.402;2023-05-17T13:46:36;4.20;;;0.60;;
76320;SDS011;65132;52.088;5.402;2023-05-17T13:49:05;4.95;;;0.70;;
76320;SDS011;65132;52.088;5.402;2023-05-17T13:51:34;3.38;;;0.82;;
76320;SDS011;65132;52.088;5.402;2023-05-17T13:54:01;4.38;;;0.80;;
76320;SDS011;65132;52.088;5.402;2023-05-17T13:56:30;5.40;;;0.90;;
76320;SDS011;65132;52.088;5.402;2023-05-17T13:58:59;2.80;;;0.70;;
76320;SDS011;65132;52.088;5.402;2023-05-17T14:01:30;4.35;;;1.05;;
76320;SDS011;65132;52.088;5.402;2023-05-17T14:03:56;2.63;;;0.70;;
76320;SDS011;65132;52.088;5.402;2023-05-17T14:06:23;4.75;;;0.73;;
76320;SDS011;65132;52.088;5.402;2023-05-17T14:08:51;3.55;;;0.63;;
76320;SDS011;65132;52.088;5.402;2023-05-17T14:11:17;6.20;;;1.05;;
76320;SDS011;65132;52.088;5.402;2023-05-17T14:13:43;5.15;;;0.63;;
76320;SDS011;65132;52.088;5.402;2023-05-17T14:16:10;3.47;;;0.60;;
76320;SDS011;65132;52.088;5.402;2023-05-17T14:18:36;3.78;;;0.88;;
76320;SDS011;65132;52.088;5.402;2023-05-17T14:21:03;4.68;;;0.50;;
76320;SDS011;65132;52.088;5.402;2023-05-17T14:23:31;6.05;;;0.50;;
76320;SDS011;65132;52.088;5.402;2023-05-17T14:26:00;5.00;;;0.80;;
76320;SDS011;65132;52.088;5.402;2023-05-17T14:28:26;3.88;;;0.63;;
76320;SDS011;65132;52.088;5.402;2023-05-17T14:30:53;5.32;;;1.08;;
76320;SDS011;65132;52.088;5.402;2023-05-17T14:33:19;5.13;;;1.10;;
76320;SDS011;65132;52.088;5.402;2023-05-17T14:35:48;5.25;;;0.90;;
76320;SDS011;65132;52.088;5.402;2023-05-17T14:38:16;4.32;;;0.80;;
76320;SDS011;65132;52.088;5.402;2023-05-17T14:40:42;3.90;;;0.90;;
76320;SDS011;65132;52.088;5.402;2023-05-17T14:43:09;3.67;;;0.70;;
76320;SDS011;65132;52.088;5.402;2023-05-17T14:45:35;3.20;;;0.80;;
76320;SDS011;65132;52.088;5.402;2023-05-17T14:48:01;4.88;;;0.60;;
76320;SDS011;65132;52.088;5.402;2023-05-17T14:50:28;6.10;;;0.73;;
76320;SDS011;65132;52.088;5.402;2023-05-17T14:52:55;3.90;;;0.85;;
76320;SDS011;65132;52.088;5.402;2023-05-17T14:55:21;4.90;;;0.60;;
76320;SDS011;65132;52.088;5.402;2023-05-17T14:57:47;4.05;;;0.98;;
76320;SDS011;65132;52.088;5.402;2023-05-17T15:00:15;5.68;;;0.60;;
76320;SDS011;65132;52.088;5.402;2023-05-17T15:02:42;5.05;;;0.60;;
76320;SDS011;65132;52.088;5.402;2023-05-17T15:05:09;4.05;;;0.52;;
76320;SDS011;65132;52.088;5.402;2023-05-17T15:07:36;6.95;;;0.50;;
76320;SDS011;65132;52.088;5.402;2023-05-17T15:10:03;3.15;;;0.80;;
76320;SDS011;65132;52.088;5.402;2023-05-17T15:12:32;6.45;;;0.88;;
76320;SDS011;65132;52.088;5.402;2023-05-17T15:14:58;4.35;;;0.52;;
76320;SDS011;65132;52.088;5.402;2023-05-17T15:17:25;3.80;;;0.50;;
76320;SDS011;65132;52.088;5.402;2023-05-17T15:19:51;6.38;;;0.95;;
76320;SDS011;65132;52.088;5.402;2023-05-17T15:22:22;3.42;;;0.68;;
76320;SDS011;65132;52.088;5.402;2023-05-17T15:24:49;6.53;;;0.73;;